sensor_id;sensor_type;location;lat;lon;timestamp;P1;durP1;ratioP1;P2;durP2;ratioP2
37199;SDS011;23096;50.892;16.746;2023-04-07T00:00:55;23.00;;;13.80;;
37199;SDS011;23096;50.892;16.746;2023-04-07T00:03:21;24.40;;;14.10;;
37199;SDS011;23096;50.892;16.746;2023-04-07T00:05:47;22.30;;;14.80;;
37199;SDS011;23096;50.892;16.746;2023-04-07T00:08:13;21.30;;;13.80;;
37199;SDS011;23096;50.892;16.746;2023-04-07T00:10:39;28.70;;;17.80;;
37199;SDS011;23096;50.892;16.746;2023-04-07T00:13:05;26.90;;;17.90;;
37199;SDS011;23096;50.892;16.746;2023-04-07T00:15:31;21.30;;;14.00;;
37199;SDS011;23096;50.892;16.746;2023-04-07T00:17:56;26.10;;;15.30;;
37199;SDS011;23096;50.892;16.746;2023-04-07T00:20:22;26.20;;;14.90;;
37199;SDS011;23096;50.892;16.746;2023-04-07T00:22:48;22.30;;;13.50;;
37199;SDS011;23096;50.892;16.746;2023-04-07T00:25:13;27.80;;;16.30;;
37199;SDS011;23096;50.892;16.746;2023-04-07T00:27:39;24.80;;;15.80;;
37199;SDS011;23096;50.892;16.746;2023-04-07T00:30:05;25.50;;;16.60;;
37199;SDS011;23096;50.892;16.746;2023-04-07T00:32:31;26.30;;;16.50;;
37199;SDS011;23096;50.892;16.746;2023-04-07T00:34:58;33.30;;;18.90;;
37199;SDS011;23096;50.892;16.746;2023-04-07T00:37:24;25.90;;;16.40;;
37199;SDS011;23096;50.892;16.746;2023-04-07T00:39:50;32.40;;;19.20;;
37199;SDS011;23096;50.892;16.746;2023-04-07T00:42:16;29.70;;;19.00;;
37199;SDS011;23096;50.892;16.746;2023-04-07T00:44:42;31.00;;;19.10;;
37199;SDS011;23096;50.892;16.746;2023-04-07T00:47:08;27.30;;;17.70;;
37199;SDS011;23096;50.892;16.746;2023-04-07T00:49:35;32.50;;;19.50;;
37199;SDS011;23096;50.892;16.746;2023-04-07T00:52:01;34.00;;;19.30;;
37199;SDS011;23096;50.892;16.746;2023-04-07T00:54:29;31.40;;;19.10;;
37199;SDS011;23096;50.892;16.746;2023-04-07T00:56:55;28.20;;;17.90;;
37199;SDS011;23096;50.892;16.746;2023-04-07T00:59:21;25.40;;;16.00;;
37199;SDS011;23096;50.892;16.746;2023-04-07T01:01:50;23.70;;;16.30;;
37199;SDS011;23096;50.892;16.746;2023-04-07T01:04:32;25.30;;;15.80;;
37199;SDS011;23096;50.892;16.746;2023-04-07T01:10:41;25.40;;;16.90;;
37199;SDS011;23096;50.892;16.746;2023-04-07T01:13:21;26.30;;;17.10;;
37199;SDS011;23096;50.892;16.746;2023-04-07T01:15:57;24.50;;;16.10;;
37199;SDS011;23096;50.892;16.746;2023-04-07T01:18:31;23.00;;;16.10;;
37199;SDS011;23096;50.892;16.746;2023-04-07T01:21:01;26.40;;;16.80;;
37199;SDS011;23096;50.892;16.746;2023-04-07T01:28:48;26.60;;;15.70;;
37199;SDS011;23096;50.892;16.746;2023-04-07T01:31:20;22.30;;;15.30;;
37199;SDS011;23096;50.892;16.746;2023-04-07T01:33:47;22.20;;;15.70;;
37199;SDS011;23096;50.892;16.746;2023-04-07T01:36:14;27.80;;;17.60;;
37199;SDS011;23096;50.892;16.746;2023-04-07T01:38:42;28.60;;;16.20;;
37199;SDS011;23096;50.892;16.746;2023-04-07T01:41:08;28.30;;;18.30;;
37199;SDS011;23096;50.892;16.746;2023-04-07T01:43:36;25.70;;;17.00;;
37199;SDS011;23096;50.892;16.746;2023-04-07T01:46:03;24.70;;;16.30;;
37199;SDS011;23096;50.892;16.746;2023-04-07T01:48:29;26.00;;;17.50;;
37199;SDS011;23096;50.892;16.746;2023-04-07T01:50:55;30.30;;;17.00;;
37199;SDS011;23096;50.892;16.746;2023-04-07T01:53:22;28.80;;;18.70;;
37199;SDS011;23096;50.892;16.746;2023-04-07T01:55:48;26.10;;;17.00;;
37199;SDS011;23096;50.892;16.746;2023-04-07T01:58:14;30.70;;;17.30;;
37199;SDS011;23096;50.892;16.746;2023-04-07T02:00:41;29.10;;;16.00;;
37199;SDS011;23096;50.892;16.746;2023-04-07T02:03:22;25.60;;;15.60;;
37199;SDS011;23096;50.892;16.746;2023-04-07T02:05:51;30.60;;;17.50;;
37199;SDS011;23096;50.892;16.746;2023-04-07T02:08:23;25.40;;;16.00;;
37199;SDS011;23096;50.892;16.746;2023-04-07T02:10:52;27.10;;;16.40;;
37199;SDS011;23096;50.892;16.746;2023-04-07T02:13:20;26.80;;;17.50;;
37199;SDS011;23096;50.892;16.746;2023-04-07T02:15:47;23.90;;;15.60;;
37199;SDS011;23096;50.892;16.746;2023-04-07T02:18:16;24.90;;;16.40;;
37199;SDS011;23096;50.892;16.746;2023-04-07T02:20:44;28.50;;;17.70;;
37199;SDS011;23096;50.892;16.746;2023-04-07T02:23:11;25.30;;;15.80;;
37199;SDS011;23096;50.892;16.746;2023-04-07T02:25:37;24.30;;;16.90;;
37199;SDS011;23096;50.892;16.746;2023-04-07T02:28:03;25.70;;;16.90;;
37199;SDS011;23096;50.892;16.746;2023-04-07T02:30:30;27.80;;;17.20;;
37199;SDS011;23096;50.892;16.746;2023-04-07T02:32:56;25.10;;;16.10;;
37199;SDS011;23096;50.892;16.746;2023-04-07T02:35:22;26.90;;;16.80;;
37199;SDS011;23096;50.892;16.746;2023-04-07T02:37:47;29.60;;;17.20;;
37199;SDS011;23096;50.892;16.746;2023-04-07T02:40:13;25.20;;;16.40;;
37199;SDS011;23096;50.892;16.746;2023-04-07T02:42:39;25.90;;;15.00;;
37199;SDS011;23096;50.892;16.746;2023-04-07T02:45:05;27.70;;;17.20;;
37199;SDS011;23096;50.892;16.746;2023-04-07T02:47:33;26.70;;;17.60;;
37199;SDS011;23096;50.892;16.746;2023-04-07T02:49:58;25.70;;;17.30;;
37199;SDS011;23096;50.892;16.746;2023-04-07T02:52:24;25.30;;;17.40;;
37199;SDS011;23096;50.892;16.746;2023-04-07T02:54:50;27.00;;;16.40;;
37199;SDS011;23096;50.892;16.746;2023-04-07T02:57:17;26.50;;;17.60;;
37199;SDS011;23096;50.892;16.746;2023-04-07T02:59:43;24.60;;;16.00;;
37199;SDS011;23096;50.892;16.746;2023-04-07T03:02:09;26.70;;;16.20;;
37199;SDS011;23096;50.892;16.746;2023-04-07T03:04:35;26.80;;;16.40;;
37199;SDS011;23096;50.892;16.746;2023-04-07T03:07:01;24.70;;;16.90;;
37199;SDS011;23096;50.892;16.746;2023-04-07T03:09:28;23.40;;;16.40;;
37199;SDS011;23096;50.892;16.746;2023-04-07T03:11:54;23.70;;;16.90;;
37199;SDS011;23096;50.892;16.746;2023-04-07T03:14:20;32.70;;;16.80;;
37199;SDS011;23096;50.892;16.746;2023-04-07T03:16:47;29.70;;;16.70;;
37199;SDS011;23096;50.892;16.746;2023-04-07T03:19:13;25.60;;;16.50;;
37199;SDS011;23096;50.892;16.746;2023-04-07T03:21:42;26.40;;;16.50;;
37199;SDS011;23096;50.892;16.746;2023-04-07T03:24:07;25.60;;;17.50;;
37199;SDS011;23096;50.892;16.746;2023-04-07T03:26:33;28.60;;;16.70;;
37199;SDS011;23096;50.892;16.746;2023-04-07T03:28:59;26.80;;;18.60;;
37199;SDS011;23096;50.892;16.746;2023-04-07T03:31:26;26.50;;;18.80;;
37199;SDS011;23096;50.892;16.746;2023-04-07T03:33:52;34.40;;;19.30;;
37199;SDS011;23096;50.892;16.746;2023-04-07T03:36:18;27.10;;;16.90;;
37199;SDS011;23096;50.892;16.746;2023-04-07T03:38:45;28.70;;;17.50;;
37199;SDS011;23096;50.892;16.746;2023-04-07T03:41:11;33.90;;;18.80;;
37199;SDS011;23096;50.892;16.746;2023-04-07T03:43:37;31.40;;;18.50;;
37199;SDS011;23096;50.892;16.746;2023-04-07T03:46:02;30.20;;;17.60;;
37199;SDS011;23096;50.892;16.746;2023-04-07T03:48:29;26.60;;;17.80;;
37199;SDS011;23096;50.892;16.746;2023-04-07T03:51:06;27.80;;;17.90;;
37199;SDS011;23096;50.892;16.746;2023-04-07T03:53:32;29.70;;;19.20;;
37199;SDS011;23096;50.892;16.746;2023-04-07T03:55:58;32.80;;;19.90;;
37199;SDS011;23096;50.892;16.746;2023-04-07T03:58:45;30.00;;;18.60;;
37199;SDS011;23096;50.892;16.746;2023-04-07T04:01:15;34.40;;;19.50;;
37199;SDS011;23096;50.892;16.746;2023-04-07T04:03:41;31.40;;;18.40;;
37199;SDS011;23096;50.892;16.746;2023-04-07T04:06:21;26.40;;;17.20;;
37199;SDS011;23096;50.892;16.746;2023-04-07T04:08:47;27.20;;;17.40;;
37199;SDS011;23096;50.892;16.746;2023-04-07T04:11:13;29.60;;;17.40;;
37199;SDS011;23096;50.892;16.746;2023-04-07T04:13:44;26.80;;;17.70;;
37199;SDS011;23096;50.892;16.746;2023-04-07T04:16:10;28.50;;;17.90;;
37199;SDS011;23096;50.892;16.746;2023-04-07T04:18:36;32.40;;;17.80;;
37199;SDS011;23096;50.892;16.746;2023-04-07T04:21:02;29.30;;;19.10;;
37199;SDS011;23096;50.892;16.746;2023-04-07T04:23:28;26.20;;;17.10;;
37199;SDS011;23096;50.892;16.746;2023-04-07T04:25:54;27.70;;;16.50;;
37199;SDS011;23096;50.892;16.746;2023-04-07T04:28:20;26.90;;;16.10;;
37199;SDS011;23096;50.892;16.746;2023-04-07T04:30:45;24.80;;;16.30;;
37199;SDS011;23096;50.892;16.746;2023-04-07T04:33:12;28.40;;;16.70;;
37199;SDS011;23096;50.892;16.746;2023-04-07T04:35:47;23.50;;;16.30;;
37199;SDS011;23096;50.892;16.746;2023-04-07T04:38:15;25.20;;;16.80;;
37199;SDS011;23096;50.892;16.746;2023-04-07T04:40:45;28.90;;;17.80;;
37199;SDS011;23096;50.892;16.746;2023-04-07T04:43:11;26.40;;;14.80;;
37199;SDS011;23096;50.892;16.746;2023-04-07T04:45:38;31.10;;;18.00;;
37199;SDS011;23096;50.892;16.746;2023-04-07T04:48:05;29.80;;;17.30;;
37199;SDS011;23096;50.892;16.746;2023-04-07T04:50:31;26.60;;;16.40;;
37199;SDS011;23096;50.892;16.746;2023-04-07T04:52:56;24.60;;;16.40;;
37199;SDS011;23096;50.892;16.746;2023-04-07T04:55:22;26.90;;;16.80;;
37199;SDS011;23096;50.892;16.746;2023-04-07T04:57:49;26.90;;;17.20;;
37199;SDS011;23096;50.892;16.746;2023-04-07T05:00:19;25.90;;;16.10;;
37199;SDS011;23096;50.892;16.746;2023-04-07T05:02:46;24.10;;;16.30;;
37199;SDS011;23096;50.892;16.746;2023-04-07T05:05:13;25.00;;;16.50;;
37199;SDS011;23096;50.892;16.746;2023-04-07T05:07:39;19.00;;;13.70;;
37199;SDS011;23096;50.892;16.746;2023-04-07T05:10:06;20.70;;;13.50;;
37199;SDS011;23096;50.892;16.746;2023-04-07T05:12:33;23.60;;;13.50;;
37199;SDS011;23096;50.892;16.746;2023-04-07T05:14:59;21.60;;;14.40;;
37199;SDS011;23096;50.892;16.746;2023-04-07T05:17:25;26.20;;;15.30;;
37199;SDS011;23096;50.892;16.746;2023-04-07T05:19:51;26.40;;;15.00;;
37199;SDS011;23096;50.892;16.746;2023-04-07T05:22:25;27.80;;;16.20;;
37199;SDS011;23096;50.892;16.746;2023-04-07T05:24:51;24.70;;;15.10;;
37199;SDS011;23096;50.892;16.746;2023-04-07T05:27:16;19.10;;;12.50;;
37199;SDS011;23096;50.892;16.746;2023-04-07T05:29:43;19.20;;;13.10;;
37199;SDS011;23096;50.892;16.746;2023-04-07T05:32:14;18.30;;;12.90;;
37199;SDS011;23096;50.892;16.746;2023-04-07T05:34:40;23.40;;;14.00;;
37199;SDS011;23096;50.892;16.746;2023-04-07T05:37:06;20.10;;;13.90;;
37199;SDS011;23096;50.892;16.746;2023-04-07T05:39:32;31.90;;;15.60;;
37199;SDS011;23096;50.892;16.746;2023-04-07T05:41:58;26.90;;;16.10;;
37199;SDS011;23096;50.892;16.746;2023-04-07T05:44:25;25.30;;;16.60;;
37199;SDS011;23096;50.892;16.746;2023-04-07T05:46:51;27.00;;;14.30;;
37199;SDS011;23096;50.892;16.746;2023-04-07T05:49:17;22.50;;;15.80;;
37199;SDS011;23096;50.892;16.746;2023-04-07T05:51:45;26.30;;;18.50;;
37199;SDS011;23096;50.892;16.746;2023-04-07T05:54:11;26.50;;;17.20;;
37199;SDS011;23096;50.892;16.746;2023-04-07T05:56:36;29.90;;;17.00;;
37199;SDS011;23096;50.892;16.746;2023-04-07T05:59:03;27.80;;;16.30;;
37199;SDS011;23096;50.892;16.746;2023-04-07T06:01:29;30.80;;;18.10;;
37199;SDS011;23096;50.892;16.746;2023-04-07T06:03:56;23.70;;;15.80;;
37199;SDS011;23096;50.892;16.746;2023-04-07T06:06:24;26.20;;;16.30;;
37199;SDS011;23096;50.892;16.746;2023-04-07T06:08:51;36.30;;;17.20;;
37199;SDS011;23096;50.892;16.746;2023-04-07T06:11:16;26.50;;;16.50;;
37199;SDS011;23096;50.892;16.746;2023-04-07T06:13:42;25.10;;;16.50;;
37199;SDS011;23096;50.892;16.746;2023-04-07T06:16:07;26.30;;;15.90;;
37199;SDS011;23096;50.892;16.746;2023-04-07T06:18:33;30.00;;;18.00;;
37199;SDS011;23096;50.892;16.746;2023-04-07T06:20:58;37.10;;;19.40;;
37199;SDS011;23096;50.892;16.746;2023-04-07T06:23:24;28.10;;;17.90;;
37199;SDS011;23096;50.892;16.746;2023-04-07T06:25:50;33.30;;;20.30;;
37199;SDS011;23096;50.892;16.746;2023-04-07T06:28:17;31.00;;;17.60;;
37199;SDS011;23096;50.892;16.746;2023-04-07T06:30:43;32.20;;;17.60;;
37199;SDS011;23096;50.892;16.746;2023-04-07T06:33:10;42.20;;;21.00;;
37199;SDS011;23096;50.892;16.746;2023-04-07T06:35:37;36.80;;;18.60;;
37199;SDS011;23096;50.892;16.746;2023-04-07T06:38:05;45.10;;;20.00;;
37199;SDS011;23096;50.892;16.746;2023-04-07T06:40:31;28.80;;;19.10;;
37199;SDS011;23096;50.892;16.746;2023-04-07T06:42:57;38.80;;;19.70;;
37199;SDS011;23096;50.892;16.746;2023-04-07T06:45:28;40.00;;;19.80;;
37199;SDS011;23096;50.892;16.746;2023-04-07T06:47:54;31.30;;;19.50;;
37199;SDS011;23096;50.892;16.746;2023-04-07T06:50:20;35.40;;;19.70;;
37199;SDS011;23096;50.892;16.746;2023-04-07T06:52:46;36.50;;;19.80;;
37199;SDS011;23096;50.892;16.746;2023-04-07T06:55:12;32.70;;;19.50;;
37199;SDS011;23096;50.892;16.746;2023-04-07T06:57:37;33.90;;;18.20;;
37199;SDS011;23096;50.892;16.746;2023-04-07T07:00:03;28.70;;;18.60;;
37199;SDS011;23096;50.892;16.746;2023-04-07T07:02:32;29.90;;;17.00;;
37199;SDS011;23096;50.892;16.746;2023-04-07T07:04:57;30.90;;;19.50;;
37199;SDS011;23096;50.892;16.746;2023-04-07T07:07:23;33.20;;;20.70;;
37199;SDS011;23096;50.892;16.746;2023-04-07T07:09:50;32.00;;;19.60;;
37199;SDS011;23096;50.892;16.746;2023-04-07T07:12:16;29.10;;;17.90;;
37199;SDS011;23096;50.892;16.746;2023-04-07T07:14:42;30.10;;;19.00;;
37199;SDS011;23096;50.892;16.746;2023-04-07T07:17:08;35.90;;;20.60;;
37199;SDS011;23096;50.892;16.746;2023-04-07T07:19:33;27.30;;;18.70;;
37199;SDS011;23096;50.892;16.746;2023-04-07T07:21:59;33.70;;;21.00;;
37199;SDS011;23096;50.892;16.746;2023-04-07T07:24:28;35.10;;;21.00;;
37199;SDS011;23096;50.892;16.746;2023-04-07T07:26:54;37.90;;;20.70;;
37199;SDS011;23096;50.892;16.746;2023-04-07T07:29:21;33.30;;;21.80;;
37199;SDS011;23096;50.892;16.746;2023-04-07T07:31:47;32.70;;;21.10;;
37199;SDS011;23096;50.892;16.746;2023-04-07T07:34:12;33.00;;;20.60;;
37199;SDS011;23096;50.892;16.746;2023-04-07T07:36:38;31.10;;;18.20;;
37199;SDS011;23096;50.892;16.746;2023-04-07T07:39:04;53.60;;;21.20;;
37199;SDS011;23096;50.892;16.746;2023-04-07T07:41:30;39.60;;;18.90;;
37199;SDS011;23096;50.892;16.746;2023-04-07T07:43:55;37.20;;;18.50;;
37199;SDS011;23096;50.892;16.746;2023-04-07T07:46:21;55.70;;;26.80;;
37199;SDS011;23096;50.892;16.746;2023-04-07T07:48:48;92.60;;;45.40;;
37199;SDS011;23096;50.892;16.746;2023-04-07T07:51:15;58.30;;;34.40;;
37199;SDS011;23096;50.892;16.746;2023-04-07T07:53:40;43.90;;;28.20;;
37199;SDS011;23096;50.892;16.746;2023-04-07T07:56:06;33.90;;;22.40;;
37199;SDS011;23096;50.892;16.746;2023-04-07T07:58:31;32.90;;;20.00;;
37199;SDS011;23096;50.892;16.746;2023-04-07T08:00:57;26.70;;;19.20;;
37199;SDS011;23096;50.892;16.746;2023-04-07T08:03:22;28.70;;;17.20;;
37199;SDS011;23096;50.892;16.746;2023-04-07T08:05:48;42.40;;;22.60;;
37199;SDS011;23096;50.892;16.746;2023-04-07T08:08:14;60.60;;;27.20;;
37199;SDS011;23096;50.892;16.746;2023-04-07T08:10:40;76.10;;;30.20;;
37199;SDS011;23096;50.892;16.746;2023-04-07T08:13:05;66.20;;;28.10;;
37199;SDS011;23096;50.892;16.746;2023-04-07T08:15:31;89.50;;;33.20;;
37199;SDS011;23096;50.892;16.746;2023-04-07T08:17:57;59.20;;;28.10;;
37199;SDS011;23096;50.892;16.746;2023-04-07T08:20:24;60.30;;;28.70;;
37199;SDS011;23096;50.892;16.746;2023-04-07T08:22:50;57.00;;;29.70;;
37199;SDS011;23096;50.892;16.746;2023-04-07T08:25:16;45.60;;;25.10;;
37199;SDS011;23096;50.892;16.746;2023-04-07T08:27:42;30.60;;;21.40;;
37199;SDS011;23096;50.892;16.746;2023-04-07T08:30:07;31.10;;;20.50;;
37199;SDS011;23096;50.892;16.746;2023-04-07T08:32:40;38.40;;;21.70;;
37199;SDS011;23096;50.892;16.746;2023-04-07T08:35:07;30.40;;;19.80;;
37199;SDS011;23096;50.892;16.746;2023-04-07T08:37:33;31.80;;;20.60;;
37199;SDS011;23096;50.892;16.746;2023-04-07T08:39:59;29.00;;;19.10;;
37199;SDS011;23096;50.892;16.746;2023-04-07T08:42:30;29.90;;;18.80;;
37199;SDS011;23096;50.892;16.746;2023-04-07T08:44:58;30.80;;;19.30;;
37199;SDS011;23096;50.892;16.746;2023-04-07T08:47:30;31.50;;;19.60;;
37199;SDS011;23096;50.892;16.746;2023-04-07T08:50:00;28.10;;;20.20;;
37199;SDS011;23096;50.892;16.746;2023-04-07T08:52:34;43.20;;;21.70;;
37199;SDS011;23096;50.892;16.746;2023-04-07T08:55:04;30.50;;;19.30;;
37199;SDS011;23096;50.892;16.746;2023-04-07T08:57:32;32.30;;;21.60;;
37199;SDS011;23096;50.892;16.746;2023-04-07T08:59:59;32.80;;;20.90;;
37199;SDS011;23096;50.892;16.746;2023-04-07T09:02:48;39.40;;;25.00;;
37199;SDS011;23096;50.892;16.746;2023-04-07T09:05:16;34.70;;;22.80;;
37199;SDS011;23096;50.892;16.746;2023-04-07T09:07:41;32.70;;;22.10;;
37199;SDS011;23096;50.892;16.746;2023-04-07T09:10:10;32.10;;;21.30;;
37199;SDS011;23096;50.892;16.746;2023-04-07T09:12:36;33.50;;;21.30;;
37199;SDS011;23096;50.892;16.746;2023-04-07T09:15:02;30.40;;;22.00;;
37199;SDS011;23096;50.892;16.746;2023-04-07T09:17:28;29.80;;;22.30;;
37199;SDS011;23096;50.892;16.746;2023-04-07T09:19:55;38.80;;;24.70;;
37199;SDS011;23096;50.892;16.746;2023-04-07T09:22:34;40.20;;;26.80;;
37199;SDS011;23096;50.892;16.746;2023-04-07T09:25:16;41.50;;;26.10;;
37199;SDS011;23096;50.892;16.746;2023-04-07T09:28:02;36.80;;;24.90;;
37199;SDS011;23096;50.892;16.746;2023-04-07T09:30:29;36.00;;;25.40;;
37199;SDS011;23096;50.892;16.746;2023-04-07T09:32:57;44.50;;;26.90;;
37199;SDS011;23096;50.892;16.746;2023-04-07T09:35:23;41.60;;;27.30;;
37199;SDS011;23096;50.892;16.746;2023-04-07T09:38:01;35.50;;;25.00;;
37199;SDS011;23096;50.892;16.746;2023-04-07T09:40:28;40.20;;;27.20;;
37199;SDS011;23096;50.892;16.746;2023-04-07T09:42:53;37.80;;;26.60;;
37199;SDS011;23096;50.892;16.746;2023-04-07T09:45:26;36.80;;;23.30;;
37199;SDS011;23096;50.892;16.746;2023-04-07T09:47:52;33.50;;;24.50;;
37199;SDS011;23096;50.892;16.746;2023-04-07T09:50:34;37.00;;;24.90;;
37199;SDS011;23096;50.892;16.746;2023-04-07T09:53:04;36.30;;;23.40;;
37199;SDS011;23096;50.892;16.746;2023-04-07T09:55:29;35.00;;;22.20;;
37199;SDS011;23096;50.892;16.746;2023-04-07T09:57:55;32.70;;;23.30;;
37199;SDS011;23096;50.892;16.746;2023-04-07T10:00:22;31.20;;;21.60;;
37199;SDS011;23096;50.892;16.746;2023-04-07T10:02:48;27.60;;;19.30;;
37199;SDS011;23096;50.892;16.746;2023-04-07T10:05:15;36.20;;;23.00;;
37199;SDS011;23096;50.892;16.746;2023-04-07T10:07:41;27.60;;;19.00;;
37199;SDS011;23096;50.892;16.746;2023-04-07T10:10:08;29.90;;;20.70;;
37199;SDS011;23096;50.892;16.746;2023-04-07T10:12:35;34.70;;;21.80;;
37199;SDS011;23096;50.892;16.746;2023-04-07T10:15:02;30.00;;;22.30;;
37199;SDS011;23096;50.892;16.746;2023-04-07T10:17:28;28.00;;;20.50;;
37199;SDS011;23096;50.892;16.746;2023-04-07T10:19:59;30.30;;;20.70;;
37199;SDS011;23096;50.892;16.746;2023-04-07T10:22:26;32.20;;;20.30;;
37199;SDS011;23096;50.892;16.746;2023-04-07T10:24:55;32.10;;;21.50;;
37199;SDS011;23096;50.892;16.746;2023-04-07T10:30:31;31.60;;;19.70;;
37199;SDS011;23096;50.892;16.746;2023-04-07T10:32:57;32.80;;;20.30;;
37199;SDS011;23096;50.892;16.746;2023-04-07T10:35:23;32.20;;;19.20;;
37199;SDS011;23096;50.892;16.746;2023-04-07T10:40:37;32.40;;;20.70;;
37199;SDS011;23096;50.892;16.746;2023-04-07T10:43:05;29.50;;;20.30;;
37199;SDS011;23096;50.892;16.746;2023-04-07T10:48:11;28.10;;;20.00;;
37199;SDS011;23096;50.892;16.746;2023-04-07T10:50:38;28.80;;;20.40;;
37199;SDS011;23096;50.892;16.746;2023-04-07T10:53:07;33.30;;;21.90;;
37199;SDS011;23096;50.892;16.746;2023-04-07T10:55:35;30.60;;;20.70;;
37199;SDS011;23096;50.892;16.746;2023-04-07T11:00:40;33.10;;;22.10;;
37199;SDS011;23096;50.892;16.746;2023-04-07T11:03:10;33.90;;;21.20;;
37199;SDS011;23096;50.892;16.746;2023-04-07T11:05:39;27.70;;;17.50;;
37199;SDS011;23096;50.892;16.746;2023-04-07T11:08:06;26.10;;;18.50;;
37199;SDS011;23096;50.892;16.746;2023-04-07T11:10:35;26.90;;;18.80;;
37199;SDS011;23096;50.892;16.746;2023-04-07T11:13:02;27.50;;;19.90;;
37199;SDS011;23096;50.892;16.746;2023-04-07T11:15:32;27.60;;;18.80;;
37199;SDS011;23096;50.892;16.746;2023-04-07T11:18:20;28.80;;;19.00;;
37199;SDS011;23096;50.892;16.746;2023-04-07T11:23:18;25.50;;;18.50;;
37199;SDS011;23096;50.892;16.746;2023-04-07T11:25:48;27.40;;;18.10;;
37199;SDS011;23096;50.892;16.746;2023-04-07T11:28:15;25.60;;;17.10;;
37199;SDS011;23096;50.892;16.746;2023-04-07T11:30:50;21.80;;;15.80;;
37199;SDS011;23096;50.892;16.746;2023-04-07T11:33:23;24.60;;;17.20;;
37199;SDS011;23096;50.892;16.746;2023-04-07T11:35:55;21.40;;;15.70;;
37199;SDS011;23096;50.892;16.746;2023-04-07T11:38:29;22.30;;;14.60;;
37199;SDS011;23096;50.892;16.746;2023-04-07T11:41:08;20.70;;;14.40;;
37199;SDS011;23096;50.892;16.746;2023-04-07T11:43:39;21.40;;;15.80;;
37199;SDS011;23096;50.892;16.746;2023-04-07T11:46:13;22.90;;;17.10;;
37199;SDS011;23096;50.892;16.746;2023-04-07T11:48:41;25.10;;;16.90;;
37199;SDS011;23096;50.892;16.746;2023-04-07T11:51:14;21.30;;;14.20;;
37199;SDS011;23096;50.892;16.746;2023-04-07T11:53:41;25.00;;;18.50;;
37199;SDS011;23096;50.892;16.746;2023-04-07T11:56:08;58.00;;;31.10;;
37199;SDS011;23096;50.892;16.746;2023-04-07T11:58:36;87.10;;;48.40;;
37199;SDS011;23096;50.892;16.746;2023-04-07T12:01:03;34.20;;;23.00;;
37199;SDS011;23096;50.892;16.746;2023-04-07T12:03:35;22.80;;;14.10;;
37199;SDS011;23096;50.892;16.746;2023-04-07T12:06:02;25.10;;;14.60;;
37199;SDS011;23096;50.892;16.746;2023-04-07T12:08:38;22.80;;;14.00;;
37199;SDS011;23096;50.892;16.746;2023-04-07T12:11:06;25.60;;;16.60;;
37199;SDS011;23096;50.892;16.746;2023-04-07T12:13:32;27.50;;;17.30;;
37199;SDS011;23096;50.892;16.746;2023-04-07T12:15:58;51.20;;;22.30;;
37199;SDS011;23096;50.892;16.746;2023-04-07T12:18:24;27.00;;;17.60;;
37199;SDS011;23096;50.892;16.746;2023-04-07T12:20:51;25.50;;;17.30;;
37199;SDS011;23096;50.892;16.746;2023-04-07T12:23:16;28.60;;;17.60;;
37199;SDS011;23096;50.892;16.746;2023-04-07T12:25:42;33.50;;;18.30;;
37199;SDS011;23096;50.892;16.746;2023-04-07T12:28:07;37.60;;;20.10;;
37199;SDS011;23096;50.892;16.746;2023-04-07T12:30:33;42.80;;;25.30;;
37199;SDS011;23096;50.892;16.746;2023-04-07T12:32:58;38.40;;;24.20;;
37199;SDS011;23096;50.892;16.746;2023-04-07T12:35:24;38.80;;;24.40;;
37199;SDS011;23096;50.892;16.746;2023-04-07T12:37:50;36.50;;;22.80;;
37199;SDS011;23096;50.892;16.746;2023-04-07T12:40:17;36.00;;;21.50;;
37199;SDS011;23096;50.892;16.746;2023-04-07T12:42:42;27.90;;;19.40;;
37199;SDS011;23096;50.892;16.746;2023-04-07T12:45:08;31.30;;;20.40;;
37199;SDS011;23096;50.892;16.746;2023-04-07T12:47:34;29.60;;;17.70;;
37199;SDS011;23096;50.892;16.746;2023-04-07T12:50:00;24.20;;;16.80;;
37199;SDS011;23096;50.892;16.746;2023-04-07T12:52:26;23.00;;;16.80;;
37199;SDS011;23096;50.892;16.746;2023-04-07T12:54:52;22.10;;;15.90;;
37199;SDS011;23096;50.892;16.746;2023-04-07T12:57:18;25.90;;;17.30;;
37199;SDS011;23096;50.892;16.746;2023-04-07T12:59:43;22.70;;;17.20;;
37199;SDS011;23096;50.892;16.746;2023-04-07T13:02:09;28.70;;;18.20;;
37199;SDS011;23096;50.892;16.746;2023-04-07T13:04:37;26.80;;;18.00;;
37199;SDS011;23096;50.892;16.746;2023-04-07T13:07:07;22.60;;;16.00;;
37199;SDS011;23096;50.892;16.746;2023-04-07T13:09:33;18.10;;;12.60;;
37199;SDS011;23096;50.892;16.746;2023-04-07T13:11:59;24.90;;;16.70;;
37199;SDS011;23096;50.892;16.746;2023-04-07T13:14:25;23.10;;;16.50;;
37199;SDS011;23096;50.892;16.746;2023-04-07T13:16:50;23.00;;;17.90;;
37199;SDS011;23096;50.892;16.746;2023-04-07T13:19:17;25.50;;;18.30;;
37199;SDS011;23096;50.892;16.746;2023-04-07T13:21:42;29.30;;;20.00;;
37199;SDS011;23096;50.892;16.746;2023-04-07T13:24:08;30.00;;;20.00;;
37199;SDS011;23096;50.892;16.746;2023-04-07T13:26:34;25.80;;;18.10;;
37199;SDS011;23096;50.892;16.746;2023-04-07T13:28:59;23.40;;;18.40;;
37199;SDS011;23096;50.892;16.746;2023-04-07T13:31:25;25.30;;;18.70;;
37199;SDS011;23096;50.892;16.746;2023-04-07T13:33:51;28.30;;;18.70;;
37199;SDS011;23096;50.892;16.746;2023-04-07T13:36:17;22.50;;;17.40;;
37199;SDS011;23096;50.892;16.746;2023-04-07T13:38:43;23.60;;;17.40;;
37199;SDS011;23096;50.892;16.746;2023-04-07T13:41:08;22.10;;;17.30;;
37199;SDS011;23096;50.892;16.746;2023-04-07T13:43:34;25.40;;;18.20;;
37199;SDS011;23096;50.892;16.746;2023-04-07T13:45:59;24.20;;;16.50;;
37199;SDS011;23096;50.892;16.746;2023-04-07T13:48:25;25.20;;;18.50;;
37199;SDS011;23096;50.892;16.746;2023-04-07T13:50:50;25.80;;;17.70;;
37199;SDS011;23096;50.892;16.746;2023-04-07T13:53:16;24.40;;;17.60;;
37199;SDS011;23096;50.892;16.746;2023-04-07T13:55:42;26.40;;;17.80;;
37199;SDS011;23096;50.892;16.746;2023-04-07T13:58:07;24.10;;;16.40;;
37199;SDS011;23096;50.892;16.746;2023-04-07T14:00:33;24.10;;;14.40;;
37199;SDS011;23096;50.892;16.746;2023-04-07T14:02:59;21.70;;;14.80;;
37199;SDS011;23096;50.892;16.746;2023-04-07T14:05:25;22.50;;;15.10;;
37199;SDS011;23096;50.892;16.746;2023-04-07T14:07:51;23.00;;;14.60;;
37199;SDS011;23096;50.892;16.746;2023-04-07T14:10:16;21.80;;;15.00;;
37199;SDS011;23096;50.892;16.746;2023-04-07T14:12:42;19.90;;;13.70;;
37199;SDS011;23096;50.892;16.746;2023-04-07T14:15:08;24.10;;;16.70;;
37199;SDS011;23096;50.892;16.746;2023-04-07T14:17:33;26.20;;;18.60;;
37199;SDS011;23096;50.892;16.746;2023-04-07T14:19:59;23.70;;;17.80;;
37199;SDS011;23096;50.892;16.746;2023-04-07T14:22:25;26.40;;;18.00;;
37199;SDS011;23096;50.892;16.746;2023-04-07T14:24:50;25.60;;;17.60;;
37199;SDS011;23096;50.892;16.746;2023-04-07T14:27:16;24.50;;;17.40;;
37199;SDS011;23096;50.892;16.746;2023-04-07T14:29:48;22.10;;;15.20;;
37199;SDS011;23096;50.892;16.746;2023-04-07T14:32:14;22.70;;;16.40;;